sensor_id;sensor_type;location;lat;lon;timestamp;pressure;altitude;pressure_sealevel;temperature;humidity
71105;BME280;58760;48.716;8.962;2024-03-02T00:02:12;95418.94;;;5.21;100.00
71105;BME280;58760;48.716;8.962;2024-03-02T00:04:38;95417.50;;;4.94;100.00
71105;BME280;58760;48.716;8.962;2024-03-02T00:07:04;95425.88;;;4.98;100.00
71105;BME280;58760;48.716;8.962;2024-03-02T00:09:30;95430.13;;;5.15;100.00
71105;BME280;58760;48.716;8.962;2024-03-02T00:11:55;95430.97;;;5.15;100.00
71105;BME280;58760;48.716;8.962;2024-03-02T00:14:22;95420.75;;;5.28;100.00
71105;BME280;58760;48.716;8.962;2024-03-02T00:16:50;95428.97;;;5.25;100.00
71105;BME280;58760;48.716;8.962;2024-03-02T00:19:16;95428.03;;;5.10;100.00
71105;BME280;58760;48.716;8.962;2024-03-02T00:21:42;95432.41;;;5.18;100.00
71105;BME280;58760;48.716;8.962;2024-03-02T00:24:18;95422.44;;;5.13;100.00
71105;BME280;58760;48.716;8.962;2024-03-02T00:26:45;95419.94;;;5.12;100.00
71105;BME280;58760;48.716;8.962;2024-03-02T00:29:15;95420.28;;;5.09;100.00
71105;BME280;58760;48.716;8.962;2024-03-02T00:31:41;95422.75;;;5.10;100.00
71105;BME280;58760;48.716;8.962;2024-03-02T00:34:07;95423.41;;;5.12;100.00
71105;BME280;58760;48.716;8.962;2024-03-02T00:36:32;95423.88;;;5.32;100.00
71105;BME280;58760;48.716;8.962;2024-03-02T00:38:59;95415.63;;;5.35;100.00
71105;BME280;58760;48.716;8.962;2024-03-02T00:41:27;95422.72;;;5.26;100.00
71105;BME280;58760;48.716;8.962;2024-03-02T00:44:04;95419.75;;;5.30;100.00
71105;BME280;58760;48.716;8.962;2024-03-02T00:46:40;95423.69;;;5.34;100.00
71105;BME280;58760;48.716;8.962;2024-03-02T00:49:27;95420.84;;;5.43;100.00
71105;BME280;58760;48.716;8.962;2024-03-02T00:51:54;95414.81;;;5.35;100.00
71105;BME280;58760;48.716;8.962;2024-03-02T00:54:21;95416.31;;;5.29;100.00
71105;BME280;58760;48.716;8.962;2024-03-02T00:56:49;95418.44;;;5.25;100.00
71105;BME280;58760;48.716;8.962;2024-03-02T00:59:14;95416.16;;;5.22;100.00
71105;BME280;58760;48.716;8.962;2024-03-02T01:01:40;95418.44;;;5.17;100.00
71105;BME280;58760;48.716;8.962;2024-03-02T01:04:07;95412.06;;;5.12;100.00
71105;BME280;58760;48.716;8.962;2024-03-02T01:06:33;95419.78;;;5.21;100.00
71105;BME280;58760;48.716;8.962;2024-03-02T01:08:59;95423.03;;;5.23;100.00
71105;BME280;58760;48.716;8.962;2024-03-02T01:11:24;95425.06;;;5.13;100.00
71105;BME280;58760;48.716;8.962;2024-03-02T01:13:50;95428.66;;;5.12;100.00
71105;BME280;58760;48.716;8.962;2024-03-02T01:16:16;95425.06;;;5.05;100.00
71105;BME280;58760;48.716;8.962;2024-03-02T01:18:41;95432.28;;;5.11;100.00
71105;BME280;58760;48.716;8.962;2024-03-02T01:21:07;95431.94;;;4.98;100.00
71105;BME280;58760;48.716;8.962;2024-03-02T01:23:33;95427.53;;;5.07;100.00
71105;BME280;58760;48.716;8.962;2024-03-02T01:25:59;95424.22;;;5.13;100.00
71105;BME280;58760;48.716;8.962;2024-03-02T01:28:24;95417.97;;;5.14;100.00
71105;BME280;58760;48.716;8.962;2024-03-02T01:30:50;95421.09;;;5.01;100.00
71105;BME280;58760;48.716;8.962;2024-03-02T01:33:16;95417.84;;;4.83;100.00
71105;BME280;58760;48.716;8.962;2024-03-02T01:35:43;95427.22;;;4.78;100.00
71105;BME280;58760;48.716;8.962;2024-03-02T01:38:09;95428.69;;;4.80;100.00
71105;BME280;58760;48.716;8.962;2024-03-02T01:40:35;95425.56;;;4.93;100.00
71105;BME280;58760;48.716;8.962;2024-03-02T01:43:01;95427.88;;;5.04;100.00
71105;BME280;58760;48.716;8.962;2024-03-02T01:45:28;95418.84;;;4.90;100.00
71105;BME280;58760;48.716;8.962;2024-03-02T01:47:54;95418.16;;;4.88;100.00
71105;BME280;58760;48.716;8.962;2024-03-02T01:50:31;95414.41;;;4.91;100.00
71105;BME280;58760;48.716;8.962;2024-03-02T01:52:57;95418.31;;;4.95;100.00
71105;BME280;58760;48.716;8.962;2024-03-02T01:55:24;95417.81;;;4.91;100.00
71105;BME280;58760;48.716;8.962;2024-03-02T01:57:51;95418.31;;;4.79;100.00
71105;BME280;58760;48.716;8.962;2024-03-02T02:00:18;95419.97;;;4.71;100.00
71105;BME280;58760;48.716;8.962;2024-03-02T02:02:46;95411.63;;;4.84;100.00
71105;BME280;58760;48.716;8.962;2024-03-02T02:05:12;95423.09;;;4.83;100.00
71105;BME280;58760;48.716;8.962;2024-03-02T02:07:38;95425.38;;;4.78;100.00
71105;BME280;58760;48.716;8.962;2024-03-02T02:10:04;95417.69;;;4.77;100.00
71105;BME280;58760;48.716;8.962;2024-03-02T02:12:29;95408.81;;;4.86;100.00
71105;BME280;58760;48.716;8.962;2024-03-02T02:14:55;95411.44;;;4.61;100.00
71105;BME280;58760;48.716;8.962;2024-03-02T02:17:21;95411.91;;;4.65;100.00
71105;BME280;58760;48.716;8.962;2024-03-02T02:19:46;95413.56;;;4.50;100.00
71105;BME280;58760;48.716;8.962;2024-03-02T02:22:11;95415.03;;;4.36;100.00
71105;BME280;58760;48.716;8.962;2024-03-02T02:24:40;95417.97;;;4.33;100.00
71105;BME280;58760;48.716;8.962;2024-03-02T02:27:09;95418.16;;;4.32;100.00
71105;BME280;58760;48.716;8.962;2024-03-02T02:29:40;95422.56;;;4.23;100.00
71105;BME280;58760;48.716;8.962;2024-03-02T02:32:06;95412.03;;;4.23;100.00
71105;BME280;58760;48.716;8.962;2024-03-02T02:34:31;95414.84;;;4.30;100.00
71105;BME280;58760;48.716;8.962;2024-03-02T02:36:57;95399.28;;;4.28;100.00
71105;BME280;58760;48.716;8.962;2024-03-02T02:39:22;95395.97;;;4.26;100.00
71105;BME280;58760;48.716;8.962;2024-03-02T02:41:48;95392.88;;;4.22;100.00
71105;BME280;58760;48.716;8.962;2024-03-02T02:44:14;95395.16;;;4.09;100.00
71105;BME280;58760;48.716;8.962;2024-03-02T02:46:40;95392.22;;;4.53;100.00
71105;BME280;58760;48.716;8.962;2024-03-02T02:49:06;95388.94;;;4.51;100.00
71105;BME280;58760;48.716;8.962;2024-03-02T02:51:32;95393.72;;;4.63;100.00
71105;BME280;58760;48.716;8.962;2024-03-02T02:53:57;95391.56;;;4.51;100.00
71105;BME280;58760;48.716;8.962;2024-03-02T02:56:23;95404.38;;;4.46;100.00
71105;BME280;58760;48.716;8.962;2024-03-02T02:58:49;95395.84;;;4.52;100.00
71105;BME280;58760;48.716;8.962;2024-03-02T03:01:15;95400.44;;;4.58;100.00
71105;BME280;58760;48.716;8.962;2024-03-02T03:03:43;95393.22;;;4.60;100.00
71105;BME280;58760;48.716;8.962;2024-03-02T03:06:09;95391.09;;;4.63;100.00
71105;BME280;58760;48.716;8.962;2024-03-02T03:08:35;95390.25;;;4.63;100.00
71105;BME280;58760;48.716;8.962;2024-03-02T03:11:00;95389.78;;;4.51;100.00
71105;BME280;58760;48.716;8.962;2024-03-02T03:13:26;95388.28;;;4.57;100.00
71105;BME280;58760;48.716;8.962;2024-03-02T03:15:52;95390.25;;;4.31;100.00
71105;BME280;58760;48.716;8.962;2024-03-02T03:18:18;95393.50;;;4.16;100.00
71105;BME280;58760;48.716;8.962;2024-03-02T03:20:44;95395.91;;;3.94;100.00
71105;BME280;58760;48.716;8.962;2024-03-02T03:23:09;95392.78;;;3.90;100.00
71105;BME280;58760;48.716;8.962;2024-03-02T03:25:34;95397.41;;;3.96;100.00
71105;BME280;58760;48.716;8.962;2024-03-02T03:28:00;95399.03;;;3.89;100.00
71105;BME280;58760;48.716;8.962;2024-03-02T03:30:27;95386.53;;;3.75;100.00
71105;BME280;58760;48.716;8.962;2024-03-02T03:32:52;95395.06;;;3.77;100.00
71105;BME280;58760;48.716;8.962;2024-03-02T03:35:18;95403.41;;;3.73;100.00
71105;BME280;58760;48.716;8.962;2024-03-02T03:37:44;95403.59;;;3.79;100.00
71105;BME280;58760;48.716;8.962;2024-03-02T03:40:10;95405.56;;;3.77;100.00
71105;BME280;58760;48.716;8.962;2024-03-02T03:42:36;95404.88;;;3.67;100.00
71105;BME280;58760;48.716;8.962;2024-03-02T03:45:03;95402.56;;;3.64;100.00
71105;BME280;58760;48.716;8.962;2024-03-02T03:47:28;95405.47;;;3.61;100.00
71105;BME280;58760;48.716;8.962;2024-03-02T03:49:54;95405.66;;;3.59;100.00
71105;BME280;58760;48.716;8.962;2024-03-02T03:52:19;95410.44;;;3.64;100.00
71105;BME280;58760;48.716;8.962;2024-03-02T03:54:46;95408.47;;;3.66;100.00
71105;BME280;58760;48.716;8.962;2024-03-02T03:57:12;95402.75;;;3.71;100.00
71105;BME280;58760;48.716;8.962;2024-03-02T03:59:37;95399.16;;;3.80;100.00
71105;BME280;58760;48.716;8.962;2024-03-02T04:02:03;95404.97;;;3.99;100.00
71105;BME280;58760;48.716;8.962;2024-03-02T04:04:29;95398.06;;;3.98;100.00
71105;BME280;58760;48.716;8.962;2024-03-02T04:06:55;95400.06;;;4.12;100.00
71105;BME280;58760;48.716;8.962;2024-03-02T04:09:20;95393.13;;;3.95;100.00
71105;BME280;58760;48.716;8.962;2024-03-02T04:11:46;95405.25;;;3.80;100.00
71105;BME280;58760;48.716;8.962;2024-03-02T04:14:11;95394.63;;;3.48;100.00
71105;BME280;58760;48.716;8.962;2024-03-02T04:16:38;95398.88;;;3.49;100.00
71105;BME280;58760;48.716;8.962;2024-03-02T04:19:04;95409.53;;;3.47;100.00
71105;BME280;58760;48.716;8.962;2024-03-02T04:21:30;95411.34;;;3.55;100.00
71105;BME280;58760;48.716;8.962;2024-03-02T04:23:55;95408.91;;;3.53;100.00
71105;BME280;58760;48.716;8.962;2024-03-02T04:26:27;95408.47;;;3.74;100.00
71105;BME280;58760;48.716;8.962;2024-03-02T04:28:53;95411.72;;;3.60;100.00
71105;BME280;58760;48.716;8.962;2024-03-02T04:31:19;95397.28;;;3.56;100.00
71105;BME280;58760;48.716;8.962;2024-03-02T04:33:45;95399.38;;;3.52;100.00
71105;BME280;58760;48.716;8.962;2024-03-02T04:36:11;95403.47;;;3.55;100.00
71105;BME280;58760;48.716;8.962;2024-03-02T04:38:39;95400.28;;;3.69;100.00
71105;BME280;58760;48.716;8.962;2024-03-02T04:41:05;95401.84;;;3.96;100.00
71105;BME280;58760;48.716;8.962;2024-03-02T04:43:34;95393.94;;;3.88;100.00
71105;BME280;58760;48.716;8.962;2024-03-02T04:46:00;95398.16;;;3.81;100.00
71105;BME280;58760;48.716;8.962;2024-03-02T04:48:26;95395.31;;;3.58;100.00
71105;BME280;58760;48.716;8.962;2024-03-02T04:50:52;95394.00;;;3.54;100.00
71105;BME280;58760;48.716;8.962;2024-03-02T04:53:17;95393.50;;;3.50;100.00
71105;BME280;58760;48.716;8.962;2024-03-02T04:55:43;95396.88;;;3.43;100.00
71105;BME280;58760;48.716;8.962;2024-03-02T04:58:08;95396.97;;;3.25;100.00
71105;BME280;58760;48.716;8.962;2024-03-02T05:00:34;95401.41;;;3.25;100.00
71105;BME280;58760;48.716;8.962;2024-03-02T05:03:01;95397.66;;;3.35;100.00
71105;BME280;58760;48.716;8.962;2024-03-02T05:05:27;95399.81;;;3.40;100.00
71105;BME280;58760;48.716;8.962;2024-03-02T05:07:53;95409.03;;;3.52;100.00
71105;BME280;58760;48.716;8.962;2024-03-02T05:10:19;95407.56;;;3.49;100.00
71105;BME280;58760;48.716;8.962;2024-03-02T05:12:44;95403.78;;;3.44;100.00
71105;BME280;58760;48.716;8.962;2024-03-02T05:15:11;95408.63;;;3.31;100.00
71105;BME280;58760;48.716;8.962;2024-03-02T05:17:37;95408.50;;;3.40;100.00
71105;BME280;58760;48.716;8.962;2024-03-02T05:20:05;95414.69;;;3.31;100.00
71105;BME280;58760;48.716;8.962;2024-03-02T05:22:31;95422.72;;;3.30;100.00
71105;BME280;58760;48.716;8.962;2024-03-02T05:24:56;95421.06;;;3.29;100.00
71105;BME280;58760;48.716;8.962;2024-03-02T05:27:22;95418.72;;;3.17;100.00
71105;BME280;58760;48.716;8.962;2024-03-02T05:29:47;95418.72;;;3.17;100.00
71105;BME280;58760;48.716;8.962;2024-03-02T05:32:13;95424.63;;;3.20;100.00
71105;BME280;58760;48.716;8.962;2024-03-02T05:34:38;95422.09;;;3.10;100.00
71105;BME280;58760;48.716;8.962;2024-03-02T05:37:04;95423.84;;;3.27;100.00
71105;BME280;58760;48.716;8.962;2024-03-02T05:39:29;95414.03;;;3.03;100.00
71105;BME280;58760;48.716;8.962;2024-03-02T05:41:58;95421.75;;;2.79;100.00
71105;BME280;58760;48.716;8.962;2024-03-02T05:44:23;95420.97;;;2.87;100.00
71105;BME280;58760;48.716;8.962;2024-03-02T05:46:49;95426.56;;;3.17;100.00
71105;BME280;58760;48.716;8.962;2024-03-02T05:49:14;95433.06;;;3.05;100.00
71105;BME280;58760;48.716;8.962;2024-03-02T05:51:40;95428.06;;;2.94;100.00
71105;BME280;58760;48.716;8.962;2024-03-02T05:54:05;95437.72;;;2.94;100.00
71105;BME280;58760;48.716;8.962;2024-03-02T05:56:31;95432.78;;;2.91;100.00
71105;BME280;58760;48.716;8.962;2024-03-02T05:58:57;95425.19;;;3.05;100.00
71105;BME280;58760;48.716;8.962;2024-03-02T06:01:45;95424.09;;;2.90;100.00
71105;BME280;58760;48.716;8.962;2024-03-02T06:04:17;95422.81;;;2.94;100.00
71105;BME280;58760;48.716;8.962;2024-03-02T06:06:43;95420.06;;;2.96;100.00
71105;BME280;58760;48.716;8.962;2024-03-02T06:09:09;95429.41;;;2.98;100.00
71105;BME280;58760;48.716;8.962;2024-03-02T06:11:39;95434.66;;;2.98;100.00
71105;BME280;58760;48.716;8.962;2024-03-02T06:14:07;95434.66;;;2.98;100.00
71105;BME280;58760;48.716;8.962;2024-03-02T06:16:33;95440.63;;;3.08;100.00
71105;BME280;58760;48.716;8.962;2024-03-02T06:18:59;95445.34;;;3.05;100.00
71105;BME280;58760;48.716;8.962;2024-03-02T06:21:25;95438.13;;;3.07;100.00
71105;BME280;58760;48.716;8.962;2024-03-02T06:23:50;95442.22;;;3.09;100.00
71105;BME280;58760;48.716;8.962;2024-03-02T06:26:16;95438.94;;;2.82;100.00
71105;BME280;58760;48.716;8.962;2024-03-02T06:28:42;95449.53;;;2.98;100.00
71105;BME280;58760;48.716;8.962;2024-03-02T06:31:08;95442.75;;;3.13;100.00
71105;BME280;58760;48.716;8.962;2024-03-02T06:33:33;95446.00;;;3.07;100.00
71105;BME280;58760;48.716;8.962;2024-03-02T06:35:59;95452.19;;;3.06;100.00
71105;BME280;58760;48.716;8.962;2024-03-02T06:38:24;95446.56;;;3.19;100.00
71105;BME280;58760;48.716;8.962;2024-03-02T06:40:50;95449.47;;;3.15;100.00
71105;BME280;58760;48.716;8.962;2024-03-02T06:43:15;95453.75;;;3.16;100.00
71105;BME280;58760;48.716;8.962;2024-03-02T06:45:41;95443.75;;;3.12;100.00
71105;BME280;58760;48.716;8.962;2024-03-02T06:48:07;95447.28;;;3.03;100.00
71105;BME280;58760;48.716;8.962;2024-03-02T06:50:32;95447.78;;;3.06;100.00
71105;BME280;58760;48.716;8.962;2024-03-02T06:52:58;95444.50;;;3.04;100.00
71105;BME280;58760;48.716;8.962;2024-03-02T06:55:23;95449.44;;;3.07;100.00
71105;BME280;58760;48.716;8.962;2024-03-02T06:57:51;95448.69;;;3.15;100.00
71105;BME280;58760;48.716;8.962;2024-03-02T07:00:18;95454.69;;;3.33;100.00
71105;BME280;58760;48.716;8.962;2024-03-02T07:02:45;95453.06;;;3.66;100.00
71105;BME280;58760;48.716;8.962;2024-03-02T07:05:12;95446.00;;;3.66;100.00
71105;BME280;58760;48.716;8.962;2024-03-02T07:07:37;95447.34;;;3.45;100.00
71105;BME280;58760;48.716;8.962;2024-03-02T07:10:04;95449.78;;;3.38;100.00
71105;BME280;58760;48.716;8.962;2024-03-02T07:12:30;95455.22;;;3.45;100.00
71105;BME280;58760;48.716;8.962;2024-03-02T07:14:56;95447.66;;;3.42;100.00
71105;BME280;58760;48.716;8.962;2024-03-02T07:17:27;95450.31;;;3.16;100.00
71105;BME280;58760;48.716;8.962;2024-03-02T07:19:53;95455.84;;;3.39;100.00
71105;BME280;58760;48.716;8.962;2024-03-02T07:22:19;95450.81;;;3.45;100.00
71105;BME280;58760;48.716;8.962;2024-03-02T07:24:45;95449.91;;;3.62;100.00
71105;BME280;58760;48.716;8.962;2024-03-02T07:27:14;95450.44;;;3.66;100.00
71105;BME280;58760;48.716;8.962;2024-03-02T07:29:40;95442.31;;;3.51;100.00
71105;BME280;58760;48.716;8.962;2024-03-02T07:32:06;95440.38;;;3.53;100.00
71105;BME280;58760;48.716;8.962;2024-03-02T07:34:32;95439.31;;;3.72;100.00
71105;BME280;58760;48.716;8.962;2024-03-02T07:36:58;95440.78;;;3.75;100.00
71105;BME280;58760;48.716;8.962;2024-03-02T07:39:24;95449.53;;;3.83;100.00
71105;BME280;58760;48.716;8.962;2024-03-02T07:41:49;95444.91;;;3.77;100.00
71105;BME280;58760;48.716;8.962;2024-03-02T07:44:15;95451.25;;;3.66;100.00
71105;BME280;58760;48.716;8.962;2024-03-02T07:46:41;95456.19;;;3.69;100.00
71105;BME280;58760;48.716;8.962;2024-03-02T07:49:07;95463.72;;;3.73;100.00
71105;BME280;58760;48.716;8.962;2024-03-02T07:51:33;95456.69;;;3.73;100.00
71105;BME280;58760;48.716;8.962;2024-03-02T07:53:59;95457.72;;;3.80;100.00
71105;BME280;58760;48.716;8.962;2024-03-02T07:56:24;95469.56;;;4.00;100.00
71105;BME280;58760;48.716;8.962;2024-03-02T07:58:50;95470.75;;;4.06;100.00
71105;BME280;58760;48.716;8.962;2024-03-02T08:01:15;95465.84;;;4.03;100.00
71105;BME280;58760;48.716;8.962;2024-03-02T08:03:43;95458.41;;;3.98;100.00
71105;BME280;58760;48.716;8.962;2024-03-02T08:06:17;95454.56;;;4.18;100.00
71105;BME280;58760;48.716;8.962;2024-03-02T08:08:48;95446.91;;;4.57;100.00
71105;BME280;58760;48.716;8.962;2024-03-02T08:11:14;95450.53;;;4.97;100.00
71105;BME280;58760;48.716;8.962;2024-03-02T08:13:39;95443.47;;;4.97;100.00
71105;BME280;58760;48.716;8.962;2024-03-02T08:16:05;95454.78;;;5.22;100.00
71105;BME280;58760;48.716;8.962;2024-03-02T08:18:34;95439.66;;;5.16;100.00
71105;BME280;58760;48.716;8.962;2024-03-02T08:21:00;95447.53;;;5.32;100.00
71105;BME280;58760;48.716;8.962;2024-03-02T08:23:26;95438.44;;;5.51;100.00
71105;BME280;58760;48.716;8.962;2024-03-02T08:25:51;95435.47;;;5.54;100.00
71105;BME280;58760;48.716;8.962;2024-03-02T08:28:17;95444.34;;;5.61;100.00
71105;BME280;58760;48.716;8.962;2024-03-02T08:30:42;95442.09;;;5.97;100.00
71105;BME280;58760;48.716;8.962;2024-03-02T08:33:08;95421.56;;;5.84;100.00
71105;BME280;58760;48.716;8.962;2024-03-02T08:35:34;95419.72;;;5.93;100.00
71105;BME280;58760;48.716;8.962;2024-03-02T08:38:04;95428.72;;;6.06;100.00
71105;BME280;58760;48.716;8.962;2024-03-02T08:40:30;95423.97;;;6.32;100.00
71105;BME280;58760;48.716;8.962;2024-03-02T08:42:55;95429.59;;;6.52;100.00
71105;BME280;58760;48.716;8.962;2024-03-02T08:45:21;95430.34;;;6.61;100.00
71105;BME280;58760;48.716;8.962;2024-03-02T08:47:47;95429.72;;;6.81;100.00
71105;BME280;58760;48.716;8.962;2024-03-02T08:50:12;95427.81;;;6.90;100.00
71105;BME280;58760;48.716;8.962;2024-03-02T08:52:38;95418.69;;;7.01;100.00
71105;BME280;58760;48.716;8.962;2024-03-02T08:55:04;95411.94;;;6.98;100.00
71105;BME280;58760;48.716;8.962;2024-03-02T08:57:30;95406.47;;;7.00;100.00
71105;BME280;58760;48.716;8.962;2024-03-02T08:59:56;95408.50;;;7.12;100.00
71105;BME280;58760;48.716;8.962;2024-03-02T09:02:21;95401.16;;;7.22;100.00
71105;BME280;58760;48.716;8.962;2024-03-02T09:04:47;95394.28;;;7.36;100.00
71105;BME280;58760;48.716;8.962;2024-03-02T09:07:12;95399.72;;;7.49;100.00
71105;BME280;58760;48.716;8.962;2024-03-02T09:09:38;95395.09;;;7.66;100.00
71105;BME280;58760;48.716;8.962;2024-03-02T09:12:05;95391.53;;;7.88;100.00
71105;BME280;58760;48.716;8.962;2024-03-02T09:14:31;95395.28;;;7.79;100.00
71105;BME280;58760;48.716;8.962;2024-03-02T09:16:56;95394.97;;;7.88;100.00
71105;BME280;58760;48.716;8.962;2024-03-02T09:19:22;95381.41;;;7.92;100.00
71105;BME280;58760;48.716;8.962;2024-03-02T09:21:47;95374.34;;;8.13;100.00
71105;BME280;58760;48.716;8.962;2024-03-02T09:24:13;95362.47;;;8.24;100.00
71105;BME280;58760;48.716;8.962;2024-03-02T09:26:38;95357.56;;;8.35;100.00
71105;BME280;58760;48.716;8.962;2024-03-02T09:29:03;95353.75;;;8.66;100.00
71105;BME280;58760;48.716;8.962;2024-03-02T09:31:29;95356.97;;;8.82;100.00
71105;BME280;58760;48.716;8.962;2024-03-02T09:33:55;95350.13;;;8.67;100.00
71105;BME280;58760;48.716;8.962;2024-03-02T09:36:22;95346.16;;;8.77;100.00
71105;BME280;58760;48.716;8.962;2024-03-02T09:38:48;95347.25;;;8.89;100.00
71105;BME280;58760;48.716;8.962;2024-03-02T09:41:16;95355.66;;;8.72;100.00
71105;BME280;58760;48.716;8.962;2024-03-02T09:43:42;95363.69;;;9.06;100.00
71105;BME280;58760;48.716;8.962;2024-03-02T09:46:09;95348.31;;;8.95;100.00
71105;BME280;58760;48.716;8.962;2024-03-02T09:48:35;95334.88;;;9.24;100.00
71105;BME280;58760;48.716;8.962;2024-03-02T09:51:01;95338.00;;;9.00;100.00
71105;BME280;58760;48.716;8.962;2024-03-02T09:53:33;95315.75;;;9.22;100.00
71105;BME280;58760;48.716;8.962;2024-03-02T09:55:59;95321.03;;;9.22;100.00
71105;BME280;58760;48.716;8.962;2024-03-02T09:58:25;95319.44;;;9.62;100.00
71105;BME280;58760;48.716;8.962;2024-03-02T10:00:51;95320.28;;;9.76;100.00
71105;BME280;58760;48.716;8.962;2024-03-02T10:03:18;95307.75;;;9.91;100.00
71105;BME280;58760;48.716;8.962;2024-03-02T10:05:44;95313.66;;;9.99;100.00
71105;BME280;58760;48.716;8.962;2024-03-02T10:08:09;95310.81;;;9.94;100.00
71105;BME280;58760;48.716;8.962;2024-03-02T10:10:36;95302.69;;;10.09;100.00
71105;BME280;58760;48.716;8.962;2024-03-02T10:13:09;95303.91;;;10.13;100.00
71105;BME280;58760;48.716;8.962;2024-03-02T10:15:36;95300.25;;;10.08;100.00
71105;BME280;58760;48.716;8.962;2024-03-02T10:18:03;95302.69;;;10.09;100.00
71105;BME280;58760;48.716;8.962;2024-03-02T10:20:29;95299.06;;;10.17;100.00
71105;BME280;58760;48.716;8.962;2024-03-02T10:22:55;95295.38;;;10.18;100.00
71105;BME280;58760;48.716;8.962;2024-03-02T10:25:32;95301.75;;;10.23;100.00
71105;BME280;58760;48.716;8.962;2024-03-02T10:27:58;95288.31;;;10.51;100.00
71105;BME280;58760;48.716;8.962;2024-03-02T10:30:26;95285.06;;;10.49;100.00
71105;BME280;58760;48.716;8.962;2024-03-02T10:32:52;95283.81;;;10.52;100.00
71105;BME280;58760;48.716;8.962;2024-03-02T10:35:19;95280.56;;;10.36;100.00
71105;BME280;58760;48.716;8.962;2024-03-02T10:37:47;95279.94;;;10.74;100.00
71105;BME280;58760;48.716;8.962;2024-03-02T10:40:13;95271.56;;;10.83;100.00
71105;BME280;58760;48.716;8.962;2024-03-02T10:42:39;95270.75;;;10.96;100.00
71105;BME280;58760;48.716;8.962;2024-03-02T10:45:09;95266.06;;;10.91;100.00
71105;BME280;58760;48.716;8.962;2024-03-02T10:47:36;95263.53;;;11.29;100.00
71105;BME280;58760;48.716;8.962;2024-03-02T10:50:04;95262.50;;;11.43;100.00
71105;BME280;58760;48.716;8.962;2024-03-02T10:52:34;95250.53;;;11.79;100.00
71105;BME280;58760;48.716;8.962;2024-03-02T10:55:00;95247.00;;;11.85;100.00
71105;BME280;58760;48.716;8.962;2024-03-02T10:57:26;95240.41;;;11.94;100.00
71105;BME280;58760;48.716;8.962;2024-03-02T10:59:52;95238.75;;;12.06;100.00
71105;BME280;58760;48.716;8.962;2024-03-02T11:02:21;95239.44;;;12.20;100.00
71105;BME280;58760;48.716;8.962;2024-03-02T11:04:49;95235.00;;;12.14;100.00
71105;BME280;58760;48.716;8.962;2024-03-02T11:07:18;95225.44;;;12.37;100.00
71105;BME280;58760;48.716;8.962;2024-03-02T11:09:53;95228.75;;;12.26;100.00
71105;BME280;58760;48.716;8.962;2024-03-02T11:12:23;95225.63;;;12.36;100.00
71105;BME280;58760;48.716;8.962;2024-03-02T11:14:51;95225.66;;;12.61;100.00
71105;BME280;58760;48.716;8.962;2024-03-02T11:17:20;95212.56;;;12.59;100.00
71105;BME280;58760;48.716;8.962;2024-03-02T11:19:46;95202.91;;;12.65;100.00
71105;BME280;58760;48.716;8.962;2024-03-02T11:22:13;95207.25;;;12.84;100.00
71105;BME280;58760;48.716;8.962;2024-03-02T11:24:38;95199.25;;;13.02;100.00
71105;BME280;58760;48.716;8.962;2024-03-02T11:27:07;95191.06;;;13.03;100.00
71105;BME280;58760;48.716;8.962;2024-03-02T11:34:35;95188.50;;;13.51;100.00
71105;BME280;58760;48.716;8.962;2024-03-02T11:37:02;95175.75;;;13.72;100.00
71105;BME280;58760;48.716;8.962;2024-03-02T11:39:28;95182.50;;;13.86;100.00
71105;BME280;58760;48.716;8.962;2024-03-02T11:41:58;95172.72;;;13.68;100.00
71105;BME280;58760;48.716;8.962;2024-03-02T11:44:27;95170.56;;;13.88;100.00
71105;BME280;58760;48.716;8.962;2024-03-02T11:47:05;95167.63;;;14.08;100.00
71105;BME280;58760;48.716;8.962;2024-03-02T11:49:41;95159.56;;;14.26;100.00
71105;BME280;58760;48.716;8.962;2024-03-02T11:52:09;95159.28;;;14.57;100.00
71105;BME280;58760;48.716;8.962;2024-03-02T11:54:39;95153.13;;;15.03;100.00
71105;BME280;58760;48.716;8.962;2024-03-02T11:57:06;95148.38;;;15.45;100.00
71105;BME280;58760;48.716;8.962;2024-03-02T11:59:32;95146.72;;;15.96;100.00
71105;BME280;58760;48.716;8.962;2024-03-02T12:01:58;95139.16;;;16.38;100.00
71105;BME280;58760;48.716;8.962;2024-03-02T12:04:25;95132.31;;;16.97;100.00
71105;BME280;58760;48.716;8.962;2024-03-02T12:06:59;95124.81;;;17.81;100.00
71105;BME280;58760;48.716;8.962;2024-03-02T12:09:26;95121.84;;;18.62;100.00
71105;BME280;58760;48.716;8.962;2024-03-02T12:12:07;95112.13;;;17.98;100.00
71105;BME280;58760;48.716;8.962;2024-03-02T12:14:34;95112.97;;;18.30;100.00
71105;BME280;58760;48.716;8.962;2024-03-02T12:17:01;95107.91;;;18.65;100.00
71105;BME280;58760;48.716;8.962;2024-03-02T12:19:27;95116.06;;;19.27;100.00
71105;BME280;58760;48.716;8.962;2024-03-02T12:21:56;95104.56;;;19.37;100.00
71105;BME280;58760;48.716;8.962;2024-03-02T12:24:22;95100.28;;;20.39;90.25
71105;BME280;58760;48.716;8.962;2024-03-02T12:26:48;95095.66;;;20.09;95.49
71105;BME280;58760;48.716;8.962;2024-03-02T12:29:14;95091.28;;;21.24;94.57
71105;BME280;58760;48.716;8.962;2024-03-02T12:31:40;95091.88;;;20.85;86.44
71105;BME280;58760;48.716;8.962;2024-03-02T12:34:06;95086.38;;;21.41;87.32
71105;BME280;58760;48.716;8.962;2024-03-02T12:36:39;95080.69;;;22.07;76.44
71105;BME280;58760;48.716;8.962;2024-03-02T12:39:04;95075.19;;;21.68;75.97
71105;BME280;58760;48.716;8.962;2024-03-02T12:41:30;95079.28;;;21.60;73.99
71105;BME280;58760;48.716;8.962;2024-03-02T12:43:55;95070.41;;;21.55;72.32
71105;BME280;58760;48.716;8.962;2024-03-02T12:46:21;95078.38;;;20.96;71.80
71105;BME280;58760;48.716;8.962;2024-03-02T12:48:47;95073.56;;;21.67;70.78
71105;BME280;58760;48.716;8.962;2024-03-02T12:51:12;95068.69;;;21.10;71.09
71105;BME280;58760;48.716;8.962;2024-03-02T12:53:38;95064.00;;;21.30;79.59
71105;BME280;58760;48.716;8.962;2024-03-02T12:56:04;95056.81;;;21.70;74.63
71105;BME280;58760;48.716;8.962;2024-03-02T12:58:29;95049.72;;;21.89;72.89
71105;BME280;58760;48.716;8.962;2024-03-02T13:01:08;95060.38;;;22.09;65.41